Time;durP1;ratioP1;P1;durP2;ratioP2;P2;SDS_P1;SDS_P2;PMS_P1;PMS_P2;Temp;Humidity;BMP_temperature;BMP_pressure;BME280_temperature;BME280_humidity;BME280_pressure;Samples;Min_cycle;Max_cycle;Signal;HPM_P1;HPM_P2
2023/07/04 00:01:04;;;;;;;;;;;;;;;27.75;43.66;100647.15;104326;1284;63740;-83
2023/07/04 00:03:30;;;;;;;;;;;;;;;27.75;43.58;100646.23;103394;1284;66333;-83
2023/07/04 00:05:56;;;;;;;;;;;;;;;27.75;43.45;100646.64;103407;1285;62045;-83
2023/07/04 00:08:22;;;;;;;;;;;;;;;27.74;43.42;100649.90;103658;1284;61372;-83
2023/07/04 00:10:47;;;;;;;;;;;;;;;27.74;43.43;100651.73;103636;1284;61452;-83
2023/07/04 00:13:13;;;;;;;;;;;;;;;27.75;43.38;100644.65;103556;1284;61375;-84
2023/07/04 00:15:45;;;;;;;;;;;;;;;27.74;43.27;100640.00;103695;1284;59360;-84
2023/07/04 00:18:10;;;;;;;;;;;;;;;27.73;43.57;100633.01;103820;1283;59981;-84
2023/07/04 00:20:37;;;;;;;;;;;;;;;27.74;43.62;100636.02;103412;1284;61370;-84
2023/07/04 00:23:02;;;;;;;;;;;;;;;27.73;43.56;100635.19;103632;1282;61409;-84
2023/07/04 00:25:28;;;;;;;;;;;;;;;27.73;43.53;100627.45;103797;1285;61389;-84
2023/07/04 00:27:54;;;;;;;;;;;;;;;27.73;43.55;100626.70;103346;1289;62320;-84
2023/07/04 00:30:20;;;;;;;;;;;;;;;27.73;43.32;100627.45;103654;1282;59918;-84
2023/07/04 00:32:46;;;;;;;;;;;;;;;27.73;43.43;100627.80;103889;1282;59923;-83
2023/07/04 00:35:11;;;;;;;;;;;;;;;27.73;43.57;100631.20;104169;1282;60158;-84
2023/07/04 00:37:38;;;;;;;;;;;;;;;27.72;43.72;100631.48;103504;1283;61342;-84
2023/07/04 00:40:07;;;;;;;;;;;;;;;27.72;43.54;100628.77;103289;1287;61416;-84
2023/07/04 00:42:35;;;;;;;;;;;;;;;27.72;43.48;100630.77;103792;1283;61336;-84
2023/07/04 00:45:05;;;;;;;;;;;;;;;27.72;43.42;100632.77;103888;1285;64625;-84
2023/07/04 00:47:46;;;;;;;;;;;;;;;27.72;43.52;100632.42;103599;1283;65912;-83
2023/07/04 00:50:13;;;;;;;;;;;;;;;27.73;43.51;100639.62;103531;1282;61214;-83
2023/07/04 00:52:39;;;;;;;;;;;;;;;27.72;43.42;100637.67;103724;1282;61452;-83
2023/07/04 00:55:09;;;;;;;;;;;;;;;27.72;43.55;100641.10;103864;1283;61440;-83
2023/07/04 00:57:35;;;;;;;;;;;;;;;27.72;43.50;100644.52;103437;1282;65999;-83
2023/07/04 01:00:08;;;;;;;;;;;;;;;27.72;43.52;100645.81;103690;1284;61251;-84
2023/07/04 01:02:34;;;;;;;;;;;;;;;27.72;43.68;100648.39;103981;1282;61439;-84
2023/07/04 01:05:00;;;;;;;;;;;;;;;27.72;43.54;100650.55;103510;1285;61268;-84
2023/07/04 01:07:28;;;;;;;;;;;;;;;27.72;43.78;100653.97;103423;1284;61415;-84
2023/07/04 01:10:03;;;;;;;;;;;;;;;27.72;43.70;100653.98;104057;1284;60042;-84
2023/07/04 01:12:29;;;;;;;;;;;;;;;27.71;43.48;100656.01;103438;1282;61153;-83
2023/07/04 01:14:56;;;;;;;;;;;;;;;27.71;43.55;100652.58;103590;1283;72503;-83
2023/07/04 01:17:21;;;;;;;;;;;;;;;27.71;43.54;100656.75;104069;1283;61295;-83
2023/07/04 01:19:47;;;;;;;;;;;;;;;27.71;43.53;100654.75;103743;1284;61458;-83
2023/07/04 01:22:19;;;;;;;;;;;;;;;27.71;43.84;100651.69;103697;1282;61711;-83
2023/07/04 01:25:04;;;;;;;;;;;;;;;27.71;43.89;100658.40;103609;1282;64955;-83
2023/07/04 01:27:29;;;;;;;;;;;;;;;27.71;43.78;100661.33;103648;1283;66967;-83
2023/07/04 01:30:00;;;;;;;;;;;;;;;27.70;43.76;100659.15;104302;1284;61388;-83
2023/07/04 01:32:27;;;;;;;;;;;;;;;27.71;43.71;100656.61;103440;1284;61419;-83
2023/07/04 01:34:58;;;;;;;;;;;;;;;27.71;43.72;100654.45;103483;1282;63855;-83
2023/07/04 01:37:24;;;;;;;;;;;;;;;27.71;43.69;100660.04;103627;1285;65909;-83
2023/07/04 01:39:49;;;;;;;;;;;;;;;27.70;43.84;100663.71;103922;1282;60149;-84
2023/07/04 01:42:16;;;;;;;;;;;;;;;27.71;43.71;100666.95;104269;1284;61405;-84
2023/07/04 01:44:41;;;;;;;;;;;;;;;27.70;43.77;100664.81;103405;1284;61359;-84
2023/07/04 01:47:07;;;;;;;;;;;;;;;27.70;43.66;100668.64;103789;1284;61269;-83
2023/07/04 01:49:33;;;;;;;;;;;;;;;27.70;43.97;100670.81;103794;1284;61358;-84
2023/07/04 01:51:59;;;;;;;;;;;;;;;27.69;43.76;100672.48;103396;1284;61461;-84
2023/07/04 01:54:28;;;;;;;;;;;;;;;27.70;43.86;100671.52;103553;1284;61257;-83
2023/07/04 01:56:53;;;;;;;;;;;;;;;27.70;43.91;100673.35;103891;1284;64633;-83
2023/07/04 01:59:19;;;;;;;;;;;;;;;27.70;43.69;100675.52;104419;1284;60087;-83
2023/07/04 02:01:45;;;;;;;;;;;;;;;27.70;43.88;100677.52;103319;1284;59982;-84
2023/07/04 02:04:10;;;;;;;;;;;;;;;27.69;43.78;100678.27;103626;1283;61349;-83
2023/07/04 02:06:35;;;;;;;;;;;;;;;27.69;43.91;100675.77;103662;1285;61413;-83
2023/07/04 02:09:01;;;;;;;;;;;;;;;27.69;43.68;100681.00;104135;1282;61381;-83
2023/07/04 02:11:26;;;;;;;;;;;;;;;27.69;43.82;100684.45;103446;1282;60491;-83
2023/07/04 02:13:52;;;;;;;;;;;;;;;27.69;43.95;100684.86;103456;1282;61737;-83
2023/07/04 02:16:18;;;;;;;;;;;;;;;27.69;43.85;100682.63;103703;1282;61360;-83
2023/07/04 02:18:43;;;;;;;;;;;;;;;27.68;43.86;100682.89;103763;1282;61340;-83
2023/07/04 02:21:09;;;;;;;;;;;;;;;27.69;44.02;100685.39;103462;1284;60043;-83
2023/07/04 02:23:34;;;;;;;;;;;;;;;27.68;44.18;100679.85;103502;1282;61399;-83
2023/07/04 02:26:00;;;;;;;;;;;;;;;27.69;43.79;100680.35;103761;1284;61346;-83
2023/07/04 02:28:26;;;;;;;;;;;;;;;27.68;43.95;100681.64;104388;1283;60069;-84
2023/07/04 02:30:55;;;;;;;;;;;;;;;27.68;44.06;100678.62;103324;1282;61399;-84
2023/07/04 02:33:21;;;;;;;;;;;;;;;27.68;43.97;100677.54;103506;1284;65920;-84
2023/07/04 02:35:49;;;;;;;;;;;;;;;27.68;44.03;100683.51;103572;1282;59992;-84
2023/07/04 02:38:15;;;;;;;;;;;;;;;27.67;43.93;100688.08;103845;1284;59987;-84
2023/07/04 02:40:44;;;;;;;;;;;;;;;27.67;44.08;100692.10;104145;1286;60004;-84
2023/07/04 02:43:10;;;;;;;;;;;;;;;27.66;43.97;100696.48;103429;1284;66028;-83
2023/07/04 02:45:36;;;;;;;;;;;;;;;27.67;44.07;100698.78;103533;1285;61410;-83
2023/07/04 02:48:02;;;;;;;;;;;;;;;27.66;43.96;100703.59;104372;1284;61235;-83
2023/07/04 02:50:27;;;;;;;;;;;;;;;27.64;43.95;100705.59;103952;1284;61410;-83
2023/07/04 02:52:53;;;;;;;;;;;;;;;27.59;43.98;100704.41;103468;1282;61859;-83
2023/07/04 02:55:19;;;;;;;;;;;;;;;27.55;44.25;100704.27;103586;1286;59965;-83
2023/07/04 02:57:45;;;;;;;;;;;;;;;27.52;44.24;100704.98;104489;1285;61265;-83
2023/07/04 03:00:10;;;;;;;;;;;;;;;27.48;44.39;100707.70;103648;1282;61372;-83
2023/07/04 03:02:36;;;;;;;;;;;;;;;27.45;44.43;100705.13;103512;1284;60208;-83
2023/07/04 03:05:01;;;;;;;;;;;;;;;27.42;44.18;100707.80;103937;1285;61566;-83
2023/07/04 03:07:28;;;;;;;;;;;;;;;27.40;44.40;100711.78;103352;1287;61410;-83
2023/07/04 03:09:53;;;;;;;;;;;;;;;27.38;44.39;100714.30;103434;1283;60019;-83
2023/07/04 03:12:19;;;;;;;;;;;;;;;27.37;44.27;100714.05;103663;1282;62288;-83
2023/07/04 03:14:44;;;;;;;;;;;;;;;27.35;44.55;100711.66;104691;1285;60075;-83
2023/07/04 03:17:10;;;;;;;;;;;;;;;27.34;44.69;100709.62;103524;1286;61345;-83
2023/07/04 03:19:35;;;;;;;;;;;;;;;27.32;44.41;100709.44;103696;1286;61372;-83
2023/07/04 03:22:02;;;;;;;;;;;;;;;27.32;44.60;100714.20;103921;1282;61379;-83
2023/07/04 03:24:29;;;;;;;;;;;;;;;27.31;44.77;100716.29;105074;1287;61363;-83
2023/07/04 03:26:56;;;;;;;;;;;;;;;27.30;44.64;100716.00;103498;1285;61377;-83
2023/07/04 03:29:21;;;;;;;;;;;;;;;27.29;44.61;100710.48;103538;1288;59939;-83
2023/07/04 03:31:47;;;;;;;;;;;;;;;27.28;44.73;100708.40;103824;1285;61349;-83
2023/07/04 03:34:13;;;;;;;;;;;;;;;27.27;44.66;100711.61;104434;1285;62162;-84
2023/07/04 03:36:38;;;;;;;;;;;;;;;27.25;44.70;100716.23;103490;1288;64491;-83
2023/07/04 03:39:03;;;;;;;;;;;;;;;27.25;44.80;100718.23;103574;1285;61414;-83
2023/07/04 03:41:29;;;;;;;;;;;;;;;27.25;44.73;100714.12;103806;1284;60015;-83
2023/07/04 03:43:54;;;;;;;;;;;;;;;27.26;44.89;100718.38;104517;1282;62229;-83
2023/07/04 03:46:20;;;;;;;;;;;;;;;27.27;44.89;100718.45;103561;1284;61425;-83
2023/07/04 03:48:45;;;;;;;;;;;;;;;27.26;44.96;100719.98;103591;1282;61407;-83
2023/07/04 03:51:10;;;;;;;;;;;;;;;27.27;44.81;100724.45;103614;1284;61282;-83
2023/07/04 03:53:37;;;;;;;;;;;;;;;27.26;44.97;100724.44;104081;1283;61359;-83
2023/07/04 03:56:04;;;;;;;;;;;;;;;27.25;44.76;100723.88;103794;1283;61253;-83
2023/07/04 03:58:29;;;;;;;;;;;;;;;27.23;44.71;100728.03;103463;1285;61415;-83
2023/07/04 04:00:54;;;;;;;;;;;;;;;27.23;44.94;100726.09;103757;1285;60048;-83
2023/07/04 04:03:21;;;;;;;;;;;;;;;27.22;45.01;100729.55;103933;1288;61368;-83
2023/07/04 04:05:46;;;;;;;;;;;;;;;27.20;45.09;100730.27;103442;1283;61270;-83
2023/07/04 04:08:12;;;;;;;;;;;;;;;27.19;45.05;100728.29;103549;1284;61380;-83
2023/07/04 04:10:38;;;;;;;;;;;;;;;27.18;45.06;100729.23;103756;1284;60055;-83
2023/07/04 04:13:03;;;;;;;;;;;;;;;27.19;45.12;100727.95;104025;1283;61334;-83
2023/07/04 04:15:29;;;;;;;;;;;;;;;27.18;45.30;100735.02;103529;1284;61377;-83
2023/07/04 04:17:55;;;;;;;;;;;;;;;27.18;45.25;100736.53;103388;1284;60067;-83
2023/07/04 04:20:21;;;;;;;;;;;;;;;27.17;45.25;100741.61;103631;1284;60322;-83
2023/07/04 04:22:47;;;;;;;;;;;;;;;27.18;45.37;100742.09;104268;1287;60646;-83
2023/07/04 04:25:13;;;;;;;;;;;;;;;27.18;45.06;100746.60;103430;1284;61231;-83
2023/07/04 04:27:38;;;;;;;;;;;;;;;27.19;45.28;100748.52;103666;1284;61394;-83
2023/07/04 04:30:08;;;;;;;;;;;;;;;27.18;45.37;100752.00;103422;1284;61371;-83
2023/07/04 04:32:34;;;;;;;;;;;;;;;27.18;45.34;100752.89;103766;1284;64904;-84
2023/07/04 04:35:00;;;;;;;;;;;;;;;27.17;45.41;100754.08;104468;1287;60052;-84
2023/07/04 04:37:26;;;;;;;;;;;;;;;27.16;45.35;100756.91;103424;1284;59971;-84
2023/07/04 04:39:53;;;;;;;;;;;;;;;27.16;45.37;100756.00;103568;1284;61466;-84
2023/07/04 04:42:23;;;;;;;;;;;;;;;27.17;45.36;100755.23;103634;1290;61265;-84
2023/07/04 04:44:53;;;;;;;;;;;;;;;27.18;45.36;100754.25;104119;1285;66726;-84
2023/07/04 04:47:22;;;;;;;;;;;;;;;27.18;45.38;100758.66;103555;1283;61353;-83
2023/07/04 04:49:48;;;;;;;;;;;;;;;27.20;45.47;100760.27;103630;1283;61360;-83
2023/07/04 04:52:13;;;;;;;;;;;;;;;27.21;45.40;100757.10;104043;1284;61270;-83
2023/07/04 04:54:39;;;;;;;;;;;;;;;27.22;45.29;100759.78;104304;1283;61348;-83
2023/07/04 04:57:06;;;;;;;;;;;;;;;27.23;45.29;100764.58;103322;1284;61246;-83
2023/07/04 04:59:31;;;;;;;;;;;;;;;27.24;45.61;100764.79;103732;1283;62226;-83
2023/07/04 05:01:57;;;;;;;;;;;;;;;27.25;45.66;100766.51;103500;1286;60058;-83
2023/07/04 05:04:23;;;;;;;;;;;;;;;27.25;45.77;100768.27;103812;1285;63790;-83
2023/07/04 05:06:49;;;;;;;;;;;;;;;27.26;45.61;100775.42;103745;1283;66666;-84
2023/07/04 05:09:14;;;;;;;;;;;;;;;27.28;45.47;100771.52;103565;1285;61400;-84
2023/07/04 05:11:40;;;;;;;;;;;;;;;27.28;45.56;100773.29;103713;1286;60149;-83
2023/07/04 05:14:05;;;;;;;;;;;;;;;27.30;45.51;100776.38;103909;1284;61380;-82
2023/07/04 05:16:31;;;;;;;;;;;;;;;27.30;45.73;100779.38;103819;1285;61374;-83
2023/07/04 05:18:56;;;;;;;;;;;;;;;27.31;45.54;100775.84;103605;1284;65806;-82
2023/07/04 05:21:22;;;;;;;;;;;;;;;27.31;45.56;100777.14;103641;1285;61406;-82
2023/07/04 05:23:48;;;;;;;;;;;;;;;27.32;45.62;100780.64;104220;1284;61382;-82
2023/07/04 05:26:17;;;;;;;;;;;;;;;27.33;45.68;100781.34;104423;1284;61231;-82
2023/07/04 05:28:43;;;;;;;;;;;;;;;27.35;45.84;100781.79;103936;1283;66758;-82
2023/07/04 05:31:09;;;;;;;;;;;;;;;27.36;45.68;100779.33;103551;1284;61461;-82
2023/07/04 05:33:35;;;;;;;;;;;;;;;27.37;45.86;100783.20;103729;1284;61380;-82
2023/07/04 05:36:03;;;;;;;;;;;;;;;27.40;45.65;100785.17;103968;1284;61379;-82
2023/07/04 05:38:29;;;;;;;;;;;;;;;27.41;45.66;100783.93;103902;1284;61368;-82
2023/07/04 05:40:54;;;;;;;;;;;;;;;27.43;45.71;100784.31;104453;1284;61264;-82
2023/07/04 05:43:20;;;;;;;;;;;;;;;27.44;45.76;100781.65;104368;1284;59817;-82
2023/07/04 05:45:49;;;;;;;;;;;;;;;27.44;45.85;100785.09;104510;1284;61064;-82
2023/07/04 05:48:14;;;;;;;;;;;;;;;27.43;45.71;100787.52;104209;1284;61173;-82
2023/07/04 05:50:49;;;;;;;;;;;;;;;27.44;45.72;100789.08;104579;1285;61181;-82
2023/07/04 05:53:14;;;;;;;;;;;;;;;27.45;45.80;100791.13;104663;1284;60771;-82
2023/07/04 05:55:40;;;;;;;;;;;;;;;27.45;45.83;100792.77;104460;1284;61452;-82
2023/07/04 05:58:05;;;;;;;;;;;;;;;27.46;45.85;100790.13;104395;1288;61466;-82
2023/07/04 06:00:30;;;;;;;;;;;;;;;27.47;45.72;100793.29;104866;1283;59409;-82
2023/07/04 06:02:56;;;;;;;;;;;;;;;27.49;45.69;100799.48;104834;1283;61264;-83
2023/07/04 06:05:21;;;;;;;;;;;;;;;27.51;45.82;100797.23;104687;1283;59454;-82
2023/07/04 06:07:47;;;;;;;;;;;;;;;27.53;45.92;100801.90;104370;1285;60052;-83
2023/07/04 06:10:12;;;;;;;;;;;;;;;27.55;45.73;100798.83;104485;1284;61435;-82
2023/07/04 06:12:38;;;;;;;;;;;;;;;27.57;45.86;100799.92;104593;1284;61383;-82
2023/07/04 06:15:03;;;;;;;;;;;;;;;27.57;45.75;100800.79;104634;1286;61266;-83
2023/07/04 06:17:29;;;;;;;;;;;;;;;27.58;45.76;100799.43;104741;1284;59968;-82
2023/07/04 06:19:55;;;;;;;;;;;;;;;27.59;46.02;100800.92;105118;1283;60071;-82
2023/07/04 06:22:20;;;;;;;;;;;;;;;27.61;45.81;100793.73;104390;1286;61819;-82
2023/07/04 06:24:48;;;;;;;;;;;;;;;27.62;45.86;100795.06;104124;1288;61380;-82
2023/07/04 06:27:14;;;;;;;;;;;;;;;27.63;45.76;100794.44;104579;1286;61416;-82
2023/07/04 06:29:39;;;;;;;;;;;;;;;27.64;45.72;100796.84;104338;1283;61375;-82
2023/07/04 06:32:05;;;;;;;;;;;;;;;27.66;46.02;100789.83;104380;1287;60260;-82
2023/07/04 06:34:30;;;;;;;;;;;;;;;27.67;45.87;100787.23;104255;1284;61367;-82
2023/07/04 06:36:56;;;;;;;;;;;;;;;27.68;46.07;100793.59;104306;1284;61277;-82
2023/07/04 06:39:21;;;;;;;;;;;;;;;27.69;45.82;100784.83;104270;1282;61942;-82
2023/07/04 06:41:49;;;;;;;;;;;;;;;27.70;45.96;100784.88;104021;1284;61375;-82
2023/07/04 06:44:14;;;;;;;;;;;;;;;27.71;45.97;100782.07;104005;1285;60096;-82
2023/07/04 06:46:41;;;;;;;;;;;;;;;27.72;45.82;100774.55;104053;1282;62303;-82
2023/07/04 06:49:06;;;;;;;;;;;;;;;27.73;45.95;100773.02;103740;1285;61424;-82
2023/07/04 06:51:33;;;;;;;;;;;;;;;27.73;45.96;100774.41;103887;1288;59973;-82
2023/07/04 06:54:00;;;;;;;;;;;;;;;27.73;45.76;100774.58;103905;1288;62098;-82
2023/07/04 06:56:25;;;;;;;;;;;;;;;27.74;45.78;100772.85;103483;1286;61384;-82
2023/07/04 06:58:52;;;;;;;;;;;;;;;27.74;45.75;100770.52;103615;1283;61383;-82
2023/07/04 07:01:18;;;;;;;;;;;;;;;27.75;45.66;100768.64;103500;1286;61249;-82
2023/07/04 07:03:44;;;;;;;;;;;;;;;27.75;45.86;100766.79;103735;1288;64893;-82
2023/07/04 07:06:11;;;;;;;;;;;;;;;27.76;45.59;100765.30;103567;1282;61426;-82
2023/07/04 07:08:36;;;;;;;;;;;;;;;27.76;45.58;100766.90;103304;1283;621128;-82
2023/07/04 07:11:03;;;;;;;;;;;;;;;27.77;45.56;100769.36;103811;1282;60415;-82
2023/07/04 07:13:29;;;;;;;;;;;;;;;27.78;45.55;100767.80;103787;1288;61689;-82
2023/07/04 07:16:13;;;;;;;;;;;;;;;27.79;45.85;100768.66;104395;1284;61406;-83
2023/07/04 07:18:39;;;;;;;;;;;;;;;27.78;45.53;100771.40;104793;1287;61001;-81
2023/07/04 07:21:05;;;;;;;;;;;;;;;27.79;45.44;100769.68;104261;1288;61438;-82
2023/07/04 07:23:31;;;;;;;;;;;;;;;27.81;45.69;100767.52;103766;1285;61388;-82
2023/07/04 07:25:56;;;;;;;;;;;;;;;27.83;45.43;100768.25;104361;1288;61516;-83
2023/07/04 07:28:25;;;;;;;;;;;;;;;27.85;45.53;100767.30;104515;1286;59998;-83
2023/07/04 07:31:01;;;;;;;;;;;;;;;27.87;45.66;100767.98;105309;1288;59647;-82
2023/07/04 07:33:27;;;;;;;;;;;;;;;27.88;45.59;100768.09;105036;1286;65017;-82
2023/07/04 07:35:52;;;;;;;;;;;;;;;27.89;45.45;100768.16;104990;1285;60001;-82
2023/07/04 07:38:19;;;;;;;;;;;;;;;27.89;45.44;100770.30;104871;1288;61450;-82
2023/07/04 07:40:53;;;;;;;;;;;;;;;27.90;45.39;100770.05;104835;1288;60806;-82
2023/07/04 07:43:19;;;;;;;;;;;;;;;27.90;45.33;100764.19;104679;1285;63643;-81
2023/07/04 07:45:45;;;;;;;;;;;;;;;27.91;45.31;100761.45;104592;1285;60521;-82
2023/07/04 07:48:10;;;;;;;;;;;;;;;27.92;45.22;100760.10;104374;1288;61401;-82
2023/07/04 07:50:36;;;;;;;;;;;;;;;27.93;45.52;100762.89;104547;1289;61081;-82
2023/07/04 07:53:01;;;;;;;;;;;;;;;27.93;45.42;100758.83;104668;1284;62271;-82
2023/07/04 07:55:26;;;;;;;;;;;;;;;27.94;45.60;100758.79;104481;1289;64885;-82
2023/07/04 07:57:52;;;;;;;;;;;;;;;27.95;45.24;100765.92;104960;1284;61391;-82
2023/07/04 08:00:17;;;;;;;;;;;;;;;27.95;45.34;100767.55;104440;1289;61533;-82
2023/07/04 08:02:43;;;;;;;;;;;;;;;27.97;45.35;100765.05;104787;1288;60052;-83
2023/07/04 08:05:08;;;;;;;;;;;;;;;27.97;45.02;100765.17;104928;1283;60458;-82
2023/07/04 08:07:34;;;;;;;;;;;;;;;27.98;45.51;100769.41;105000;1283;62491;-83
2023/07/04 08:09:59;;;;;;;;;;;;;;;27.98;45.44;100767.44;104896;1283;61386;-83
2023/07/04 08:12:26;;;;;;;;;;;;;;;27.99;45.09;100768.02;105038;1288;59856;-82
2023/07/04 08:14:51;;;;;;;;;;;;;;;28.01;45.28;100766.80;104614;1286;60054;-82
2023/07/04 08:17:17;;;;;;;;;;;;;;;28.01;45.04;100762.98;104210;1287;61391;-82
2023/07/04 08:19:42;;;;;;;;;;;;;;;28.01;45.17;100765.88;104690;1288;60073;-82
2023/07/04 08:22:08;;;;;;;;;;;;;;;28.01;45.18;100766.95;104195;1289;61349;-84
2023/07/04 08:24:33;;;;;;;;;;;;;;;28.01;45.20;100764.76;104581;1286;60140;-81
2023/07/04 08:26:59;;;;;;;;;;;;;;;28.03;44.95;100765.35;104561;1286;61413;-82
2023/07/04 08:29:25;;;;;;;;;;;;;;;28.04;45.19;100767.19;104895;1288;60084;-83
2023/07/04 08:31:50;;;;;;;;;;;;;;;28.07;45.06;100767.28;104747;1288;61112;-84
2023/07/04 08:34:17;;;;;;;;;;;;;;;28.09;45.03;100767.02;105140;1283;61014;-85
2023/07/04 08:36:44;;;;;;;;;;;;;;;28.11;44.98;100763.58;104914;1284;59721;-84
2023/07/04 08:39:10;;;;;;;;;;;;;;;28.13;45.17;100757.31;105073;1288;59894;-83
2023/07/04 08:41:45;;;;;;;;;;;;;;;28.14;45.36;100760.21;104645;1286;60079;-84
2023/07/04 08:44:29;;;;;;;;;;;;;;;28.15;45.44;100759.59;105153;1283;65973;-83
2023/07/04 08:46:55;;;;;;;;;;;;;;;28.16;45.10;100760.63;105244;1284;61342;-82
2023/07/04 08:49:38;;;;;;;;;;;;;;;28.15;45.07;100759.80;105091;1283;61416;-82
2023/07/04 08:52:06;;;;;;;;;;;;;;;28.14;44.92;100757.88;104580;1289;64911;-83
2023/07/04 08:54:32;;;;;;;;;;;;;;;28.13;44.90;100756.16;105046;1286;65851;-82
2023/07/04 08:56:58;;;;;;;;;;;;;;;28.13;44.53;100756.77;104546;1290;59376;-82
2023/07/04 08:59:32;;;;;;;;;;;;;;;28.12;44.42;100755.92;104563;1286;61399;-83
2023/07/04 09:02:17;;;;;;;;;;;;;;;28.11;44.33;100756.73;104828;1283;64783;-82
2023/07/04 09:05:01;;;;;;;;;;;;;;;28.11;44.25;100756.77;104591;1285;65705;-82
2023/07/04 09:07:42;;;;;;;;;;;;;;;28.11;44.03;100753.80;104571;1286;59841;-82
2023/07/04 09:10:28;;;;;;;;;;;;;;;28.12;43.84;100750.02;104606;1283;61536;-83
2023/07/04 09:12:53;;;;;;;;;;;;;;;28.11;43.83;100746.96;103952;1295;73046;-82
2023/07/04 09:15:20;;;;;;;;;;;;;;;28.11;43.73;100744.42;103903;1291;61977;-82
2023/07/04 09:17:51;;;;;;;;;;;;;;;28.11;43.90;100745.87;103567;1293;60068;-82
2023/07/04 09:20:16;;;;;;;;;;;;;;;28.11;43.81;100746.38;104498;1290;61291;-82
2023/07/04 09:22:42;;;;;;;;;;;;;;;28.12;43.64;100747.78;104555;1293;61384;-83
2023/07/04 09:25:08;;;;;;;;;;;;;;;28.13;43.64;100749.45;104177;1295;62092;-82
2023/07/04 09:27:33;;;;;;;;;;;;;;;28.14;43.72;100752.68;104002;1290;62336;-82
2023/07/04 09:29:59;;;;;;;;;;;;;;;28.13;43.45;100753.26;103832;1292;61370;-83
2023/07/04 09:32:24;;;;;;;;;;;;;;;28.14;43.59;100749.63;103715;1296;60089;-82
2023/07/04 09:34:50;;;;;;;;;;;;;;;28.13;43.52;100743.33;103704;1292;59767;-83
2023/07/04 09:37:17;;;;;;;;;;;;;;;28.15;43.56;100748.08;103331;1291;61332;-82
2023/07/04 09:39:48;;;;;;;;;;;;;;;28.16;43.36;100743.94;103785;1291;60702;-82
2023/07/04 09:42:14;;;;;;;;;;;;;;;28.16;43.38;100741.77;103614;1289;61373;-82
2023/07/04 09:44:41;;;;;;;;;;;;;;;28.17;43.16;100742.05;103624;1290;61421;-81
2023/07/04 09:47:07;;;;;;;;;;;;;;;28.16;43.19;100740.99;103499;1292;60173;-82
2023/07/04 09:49:35;;;;;;;;;;;;;;;28.18;43.26;100737.23;103761;1290;61454;-82
2023/07/04 09:52:01;;;;;;;;;;;;;;;28.18;42.99;100735.89;104051;1284;61150;-82
2023/07/04 09:54:27;;;;;;;;;;;;;;;28.19;43.03;100737.85;103655;1282;64759;-82
2023/07/04 09:56:53;;;;;;;;;;;;;;;28.20;43.00;100737.93;104447;1287;61263;-83
2023/07/04 09:59:26;;;;;;;;;;;;;;;28.21;43.02;100736.38;104341;1286;61134;-83
2023/07/04 10:01:53;;;;;;;;;;;;;;;28.21;42.99;100732.95;105901;1286;59659;-83
2023/07/04 10:04:37;;;;;;;;;;;;;;;28.19;42.88;100732.77;106500;1283;65939;-83
2023/07/04 10:07:05;;;;;;;;;;;;;;;28.17;42.99;100727.88;106703;1284;66629;-82
2023/07/04 10:09:31;;;;;;;;;;;;;;;28.17;42.92;100729.55;106198;1285;60068;-82
2023/07/04 10:12:12;;;;;;;;;;;;;;;28.17;42.91;100728.65;104315;1283;62150;-82
2023/07/04 10:14:44;;;;;;;;;;;;;;;28.17;42.81;100725.40;103969;1284;63686;-82
2023/07/04 10:17:14;;;;;;;;;;;;;;;28.17;42.91;100720.88;104358;1284;66741;-82
2023/07/04 10:19:44;;;;;;;;;;;;;;;28.16;42.83;100722.54;104345;1283;62095;-82
2023/07/04 10:22:10;;;;;;;;;;;;;;;28.16;42.74;100720.17;105647;1283;60079;-82
2023/07/04 10:24:35;;;;;;;;;;;;;;;28.18;42.61;100720.05;104154;1287;61466;-82
2023/07/04 10:27:09;;;;;;;;;;;;;;;28.18;42.67;100721.64;104289;1285;61354;-82
2023/07/04 10:29:35;;;;;;;;;;;;;;;28.18;42.33;100714.79;104494;1284;59963;-82
2023/07/04 10:32:08;;;;;;;;;;;;;;;28.17;42.53;100711.94;104577;1285;61268;-82
2023/07/04 10:34:34;;;;;;;;;;;;;;;28.17;42.37;100714.67;104286;1286;63718;-82
2023/07/04 10:37:00;;;;;;;;;;;;;;;28.16;42.41;100711.85;103809;1286;60133;-82
2023/07/04 10:39:25;;;;;;;;;;;;;;;28.16;42.36;100704.13;104317;1286;59643;-82
2023/07/04 10:42:17;;;;;;;;;;;;;;;28.16;42.70;100706.28;104412;1287;61384;-82
2023/07/04 10:44:43;;;;;;;;;;;;;;;28.15;42.56;100705.64;104806;1284;65438;-82
2023/07/04 10:47:10;;;;;;;;;;;;;;;28.15;42.37;100708.52;104017;1287;62218;-82
2023/07/04 10:49:56;;;;;;;;;;;;;;;28.14;42.50;100703.23;104084;1286;62226;-82
2023/07/04 10:52:22;;;;;;;;;;;;;;;28.15;42.58;100695.59;104240;1284;62086;-82
2023/07/04 10:54:48;;;;;;;;;;;;;;;28.14;42.48;100695.79;103969;1287;61285;-82
2023/07/04 10:57:28;;;;;;;;;;;;;;;28.14;42.51;100698.16;103877;1284;61402;-82
2023/07/04 10:59:55;;;;;;;;;;;;;;;28.14;42.29;100694.38;103801;1283;62174;-82
2023/07/04 11:02:23;;;;;;;;;;;;;;;28.14;42.29;100691.33;103894;1285;61234;-82
2023/07/04 11:04:49;;;;;;;;;;;;;;;28.14;42.32;100689.11;104649;1287;63888;-82
2023/07/04 11:07:21;;;;;;;;;;;;;;;28.14;42.16;100683.71;104000;1285;61434;-82
2023/07/04 11:09:46;;;;;;;;;;;;;;;28.13;42.24;100685.41;103697;1286;62264;-82
2023/07/04 11:12:15;;;;;;;;;;;;;;;28.13;42.25;100676.79;104190;1283;61185;-82
2023/07/04 11:14:41;;;;;;;;;;;;;;;28.13;42.27;100680.02;104544;1284;64803;-82
2023/07/04 11:17:06;;;;;;;;;;;;;;;28.12;42.23;100679.36;104313;1284;62175;-82
2023/07/04 11:19:34;;;;;;;;;;;;;;;28.12;42.14;100676.67;104367;1284;61700;-82
2023/07/04 11:22:05;;;;;;;;;;;;;;;28.12;42.04;100675.45;104837;1284;61264;-82
2023/07/04 11:24:32;;;;;;;;;;;;;;;28.12;42.02;100671.99;104529;1288;64853;-82
2023/07/04 11:27:00;;;;;;;;;;;;;;;28.12;42.16;100665.48;104343;1284;61233;-82
2023/07/04 11:29:26;;;;;;;;;;;;;;;28.12;42.05;100664.36;104446;1283;60944;-82
2023/07/04 11:32:04;;;;;;;;;;;;;;;28.13;42.13;100664.52;103995;1283;61375;-82
2023/07/04 11:34:49;;;;;;;;;;;;;;;28.13;42.23;100662.86;104098;1285;63827;-82
2023/07/04 11:37:23;;;;;;;;;;;;;;;28.14;42.26;100658.00;103441;1283;66879;-82
2023/07/04 11:39:51;;;;;;;;;;;;;;;28.14;42.00;100654.58;103816;1284;61283;-82
2023/07/04 11:42:17;;;;;;;;;;;;;;;28.14;41.93;100651.48;103629;1285;61963;-82
2023/07/04 11:45:03;;;;;;;;;;;;;;;28.14;42.14;100650.92;103621;1286;60126;-82
2023/07/04 11:47:49;;;;;;;;;;;;;;;28.15;42.31;100645.63;104181;1283;65877;-82
2023/07/04 11:50:34;;;;;;;;;;;;;;;28.15;42.17;100644.33;104356;1284;60915;-82
2023/07/04 11:53:01;;;;;;;;;;;;;;;28.16;42.12;100638.84;103602;1283;61283;-82
2023/07/04 11:55:30;;;;;;;;;;;;;;;28.16;42.11;100637.16;103381;1284;62641;-82
2023/07/04 11:57:59;;;;;;;;;;;;;;;28.16;42.05;100636.08;104054;1284;65759;-82
2023/07/04 12:00:30;;;;;;;;;;;;;;;28.17;42.27;100630.34;103915;1284;61263;-82
2023/07/04 12:03:16;;;;;;;;;;;;;;;28.18;42.04;100625.80;103436;1286;62183;-82
2023/07/04 12:05:41;;;;;;;;;;;;;;;28.18;42.09;100627.05;103736;1288;63840;-82
2023/07/04 12:08:07;;;;;;;;;;;;;;;28.18;41.85;100630.79;104046;1283;62300;-82
2023/07/04 12:10:32;;;;;;;;;;;;;;;28.18;42.09;100626.81;103786;1283;61366;-82
2023/07/04 12:12:59;;;;;;;;;;;;;;;28.18;42.09;100622.68;103883;1283;61367;-82
2023/07/04 12:15:30;;;;;;;;;;;;;;;28.18;41.95;100620.34;103897;1283;61814;-82
2023/07/04 12:17:58;;;;;;;;;;;;;;;28.18;41.94;100615.21;103917;1285;64855;-83
2023/07/04 12:20:25;;;;;;;;;;;;;;;28.19;41.79;100611.89;103514;1283;61272;-83
2023/07/04 12:22:55;;;;;;;;;;;;;;;28.19;41.93;100613.46;103580;1283;60128;-82
2023/07/04 12:25:25;;;;;;;;;;;;;;;28.20;42.15;100610.17;103938;1283;63662;-82
2023/07/04 12:27:54;;;;;;;;;;;;;;;28.20;41.94;100608.75;104343;1284;67201;-82